Latest Weather Observations for Cairns Racecourse

IDQ60801

Issued at 7:35 pm EST Sunday 21 September 2014 (issued every 30 minutes, with the page automatically refreshed every 10 minutes)

About weather observations | Map of weather stations | Latest weather observations for QLD | Other Formats
Station Details ID: 031222 Name: CAIRNS RACECOURSE Lat: -16.95 Lon: 145.75 Height: 4.1 m
Data from the previous 72 hours. | See also: Recent months for locations in Queensland
Date/Time
EST
Temp
°C
App
Temp
°C
Dew
Point
Rel
Hum
%
Delta-T
°C
Wind Press
QNH
hPa
Press
MSL
hPa
Rain
since 9 am
mm
Dir
 
Spd
km/h
Gust
km/h
Spd
kts
Gust
kts
21/07:30pm 22.6 23.7 17.9 75 2.9 S 9 13 5 7 - - 0.0
21/07:00pm 22.7 24.1 17.8 74 3.0 S 7 11 4 6 - - 0.0
21/06:30pm 23.3 24.6 17.5 70 3.6 ESE 7 9 4 5 - - 0.0
21/06:00pm 24.3 24.4 17.5 66 4.2 ESE 13 20 7 11 - - 0.0
21/05:30pm 24.9 25.0 18.3 66 4.2 ESE 15 22 8 12 - - 0.0
21/05:00pm 25.5 25.4 18.7 66 4.3 ESE 17 24 9 13 - - 0.0
21/04:30pm 26.0 24.8 18.4 63 4.8 ESE 22 33 12 18 - - 0.0
21/04:00pm 26.9 25.3 16.5 53 6.4 ESE 20 30 11 16 - - 0.0
21/03:30pm 27.2 25.9 16.8 53 6.5 ESE 19 26 10 14 - - 0.0
21/03:00pm 27.9 27.4 17.7 53 6.4 ESE 17 26 9 14 - - 0.0
21/02:30pm 27.7 26.6 17.8 54 6.3 ESE 20 28 11 15 - - 0.0
21/02:00pm 28.3 26.8 17.8 53 6.7 ESE 22 30 12 16 - - 0.0
21/01:30pm 27.9 26.4 16.8 50 6.9 E 20 32 11 17 - - 0.0
21/01:00pm 28.6 26.9 16.2 47 7.7 E 20 28 11 15 - - 0.0
21/12:30pm 28.3 27.3 17.5 52 6.8 ESE 19 30 10 16 - - 0.0
21/12:00pm 28.1 26.7 17.0 51 6.9 ESE 20 28 11 15 - - 0.0
21/11:30am 28.3 26.8 16.2 47 7.5 ESE 19 26 10 14 - - 0.0
21/11:00am 28.3 27.5 17.2 51 7.0 ESE 17 24 9 13 - - 0.0
21/10:30am 27.6 26.7 16.9 52 6.7 ESE 17 28 9 15 - - 0.0
21/10:00am 27.7 26.4 16.9 51 6.7 ESE 19 22 10 12 - - 0.0
21/09:30am 26.6 26.9 17.9 59 5.5 SSE 13 20 7 11 - - 0.0
21/09:00am 25.4 25.3 17.8 62 4.8 SSE 15 20 8 11 - - 0.0
21/08:30am 24.0 24.9 17.5 67 4.0 SSE 9 15 5 8 - - 0.0
21/08:00am 21.2 21.7 16.6 75 2.8 S 9 13 5 7 - - 0.0
21/07:30am 19.0 19.2 15.7 81 2.0 S 9 13 5 7 - - 0.0
21/07:00am 17.7 18.2 15.5 87 1.3 SW 7 11 4 6 - - 0.0
21/06:30am 16.6 18.2 14.8 89 1.0 CALM 0 0 0 0 - - 0.0
21/06:00am 16.4 17.3 14.1 86 1.3 S 2 6 1 3 - - 0.0
21/05:30am 16.5 16.7 14.3 87 1.3 S 6 9 3 5 - - 0.0
21/05:00am 16.5 16.7 14.3 87 1.3 SSW 6 9 3 5 - - 0.0
21/04:30am 16.5 17.2 14.5 88 1.1 SW 4 9 2 5 - - 0.0
21/04:00am 16.6 17.1 13.9 84 1.5 S 4 7 2 4 - - 0.0
21/03:30am 17.0 17.2 14.3 84 1.5 SSW 6 13 3 7 - - 0.0
21/03:00am 16.8 16.9 14.4 86 1.4 SW 7 11 4 6 - - 0.0
21/02:30am 17.5 17.3 14.8 84 1.6 SSE 9 13 5 7 - - 0.0
21/02:00am 17.6 17.5 15.0 85 1.5 SSE 9 13 5 7 - - 0.0
21/01:30am 17.6 17.5 15.0 85 1.5 SSE 9 13 5 7 - - 0.0
21/01:00am 17.6 17.5 14.9 84 1.6 SSE 9 11 5 6 - - 0.0
21/12:30am 18.0 18.1 15.6 86 1.4 SSE 9 11 5 6 - - 0.0
21/12:00am 17.9 19.6 15.2 84 1.6 CALM 0 0 0 0 - - 0.0
 
Date/Time
EST
Temp
°C
App
Temp
°C
Dew
Point
Rel
Hum
%
Delta-T
°C
Wind Press
QNH
hPa
Press
MSL
hPa
Rain
since 9 am
mm
Dir
 
Spd
km/h
Gust
km/h
Spd
kts
Gust
kts
20/11:30pm 18.7 19.5 15.8 83 1.7 SSE 6 9 3 5 - - 0.0
20/11:00pm 18.8 20.8 16.0 84 1.7 CALM 0 0 0 0 - - 0.0
20/10:30pm 19.5 20.3 16.3 82 1.9 SSW 7 11 4 6 - - 0.0
20/10:00pm 19.3 21.7 16.9 86 1.5 CALM 0 0 0 0 - - 0.0
20/09:30pm 20.0 21.1 17.2 84 1.7 SSW 7 9 4 5 - - 0.0
20/09:00pm 20.2 21.5 17.2 83 1.8 SW 6 7 3 4 - - 0.0
20/08:30pm 20.3 22.4 17.3 83 1.8 S 2 6 1 3 - - 0.0
20/08:00pm 21.5 22.9 17.9 80 2.2 S 7 11 4 6 - - 0.0
20/07:30pm 22.0 24.2 18.4 80 2.3 S 4 11 2 6 - - 0.0
20/07:00pm 22.9 24.0 18.9 78 2.5 SSE 11 20 6 11 - - 0.0
20/06:30pm 23.1 24.4 18.4 75 3.0 SSE 9 13 5 7 - - 0.0
20/06:00pm 24.2 24.9 15.7 59 5.1 S 6 11 3 6 - - 0.0
20/05:30pm 25.6 25.8 14.7 51 6.5 SSE 7 11 4 6 - - 0.0
20/05:00pm 25.9 25.7 15.6 53 6.3 SE 11 15 6 8 - - 0.0
20/04:30pm 27.0 25.2 13.4 43 8.0 ESE 15 22 8 12 - - 0.0
20/04:00pm 28.2 26.4 14.4 42 8.3 ESE 17 24 9 13 - - 0.0
20/03:30pm 28.9 26.2 12.8 37 9.5 SE 19 26 10 14 - - 0.0
20/03:00pm 29.6 27.0 13.8 38 9.5 SE 20 26 11 14 - - 0.0
20/02:30pm 29.7 26.9 11.2 31 10.6 SE 17 24 9 13 - - 0.0
20/02:00pm 29.5 26.4 11.5 33 10.4 ESE 19 26 10 14 - - 0.0
20/01:30pm 29.5 27.3 12.0 34 10.2 SE 15 24 8 13 - - 0.0
20/01:00pm 30.3 29.4 14.8 39 9.5 SE 13 24 7 13 - - 0.0
20/12:30pm 29.5 29.5 15.2 41 8.8 SE 9 15 5 8 - - 0.0
20/12:00pm 29.0 28.6 16.2 46 7.9 ESE 13 22 7 12 - - 0.0
20/11:30am 29.1 30.2 17.0 48 7.6 S 7 17 4 9 - - 0.0
20/11:00am 28.1 29.0 16.7 50 7.1 N 7 13 4 7 - - 0.0
20/10:30am 26.9 26.6 16.5 53 6.4 SE 13 19 7 10 - - 0.0
20/10:00am 26.2 26.5 17.0 57 5.7 SSE 11 19 6 10 - - 0.0
20/09:30am 25.3 26.0 17.0 60 5.1 SSE 9 15 5 8 - - 0.0
20/09:00am 24.2 25.1 16.7 63 4.6 SSE 7 13 4 7 - - 0.0
20/08:30am 22.1 23.4 17.0 73 3.1 SSE 6 9 3 5 - - 0.0
20/08:00am 19.9 20.8 16.2 79 2.2 S 6 9 3 5 - - 0.0
20/07:30am 18.4 19.7 16.2 87 1.3 S 4 9 2 5 - - 0.0
20/07:00am 17.2 17.7 15.5 90 1.0 SSE 7 11 4 6 - - 0.0
20/06:30am 15.6 15.5 15.0 96 0.3 SW 9 11 5 6 - - 0.0
20/06:00am 15.5 15.8 14.5 94 0.6 S 6 9 3 5 - - 0.0
20/05:30am 15.8 16.0 14.7 93 0.6 S 7 11 4 6 - - 0.0
20/05:00am 16.2 16.5 15.1 93 0.6 SSE 7 9 4 5 - - 0.0
20/04:30am 16.2 16.2 15.1 93 0.6 S 9 11 5 6 - - 0.0
20/04:00am 16.6 17.0 15.3 92 0.8 S 7 9 4 5 - - 0.0
20/03:30am 16.4 16.7 15.1 92 0.8 S 7 9 4 5 - - 0.0
20/03:00am 17.0 17.1 15.5 91 0.9 SSE 9 11 5 6 - - 0.0
20/02:30am 17.4 17.6 15.7 90 1.0 SSE 9 11 5 6 - - 0.0
20/02:00am 17.6 18.1 15.6 88 1.2 SSW 7 9 4 5 - - 0.0
20/01:30am 18.4 18.8 16.4 88 1.2 SSE 9 13 5 7 - - 0.0
20/01:00am 18.7 20.2 17.5 93 0.7 S 6 9 3 5 - - 0.0
20/12:30am 18.1 20.5 17.1 94 0.6 CALM 0 0 0 0 - - 0.0
20/12:00am 18.2 20.1 16.7 91 0.9 SSE 2 7 1 4 - - 0.0
 
Date/Time
EST
Temp
°C
App
Temp
°C
Dew
Point
Rel
Hum
%
Delta-T
°C
Wind Press
QNH
hPa
Press
MSL
hPa
Rain
since 9 am
mm
Dir
 
Spd
km/h
Gust
km/h
Spd
kts
Gust
kts
19/11:30pm 18.5 19.7 17.3 93 0.7 S 7 9 4 5 - - 0.0
19/11:00pm 18.0 20.1 16.3 90 1.0 CALM 0 7 0 4 - - 0.0
19/10:30pm 19.0 21.7 17.8 93 0.7 CALM 0 0 0 0 - - 0.0
19/10:00pm 18.4 20.7 16.7 90 1.0 CALM 0 4 0 2 - - 0.0
19/09:30pm 19.5 21.3 17.5 88 1.2 S 4 7 2 4 - - 0.0
19/09:00pm 19.9 21.2 17.1 84 1.7 S 6 9 3 5 - - 0.0
19/08:30pm 20.4 21.2 17.2 82 2.0 SSW 9 13 5 7 - - 0.0
19/08:00pm 22.0 22.8 18.2 79 2.4 S 11 15 6 8 - - 0.0
19/07:30pm 22.6 23.3 18.8 79 2.4 SSE 13 19 7 10 - - 0.0
19/07:00pm 22.4 22.9 18.4 78 2.5 SE 13 20 7 11 - - 0.0
19/06:30pm 22.7 23.2 18.3 76 2.8 SE 13 20 7 11 - - 0.0
19/06:00pm 23.5 23.5 18.2 72 3.3 SE 15 22 8 12 - - 0.0
19/05:30pm 24.6 25.0 18.1 67 4.1 SSE 13 20 7 11 - - 0.0
19/05:00pm 25.6 25.5 17.8 62 4.9 SSE 15 22 8 12 - - 0.0
19/04:30pm 27.3 26.7 16.6 52 6.6 SE 15 20 8 11 - - 0.0
19/04:00pm 28.0 26.8 16.0 48 7.4 ESE 17 24 9 13 - - 0.0
19/03:30pm 29.2 28.1 16.4 46 8.0 SE 17 20 9 11 - - 0.0
19/03:00pm 29.6 27.8 13.4 37 9.6 ESE 15 20 8 11 - - 0.0
19/02:30pm 29.2 26.8 12.6 36 9.7 ESE 17 20 9 11 - - 0.0
19/02:00pm 30.4 27.9 12.3 33 10.6 ESE 17 24 9 13 - - 0.0
19/01:30pm 29.8 26.9 10.9 31 10.8 SE 17 24 9 13 - - 0.0
19/01:00pm 29.5 29.0 14.9 41 8.9 SE 11 20 6 11 - - 0.0
19/12:30pm 28.9 29.1 16.8 48 7.6 SE 11 17 6 9 - - 0.0
19/12:00pm 28.5 29.2 17.1 50 7.2 SSE 9 19 5 10 - - 0.0
19/11:30am 27.5 28.1 16.8 52 6.7 SSE 9 15 5 8 - - 0.0
19/11:00am 27.0 26.9 16.9 54 6.3 ESE 13 22 7 12 - - 0.0
19/10:30am 26.4 26.7 16.9 56 5.9 SSE 11 20 6 11 - - 0.0
19/10:00am 26.1 25.1 16.6 55 5.9 SSE 17 22 9 12 - - 0.0
19/09:30am 24.6 24.4 15.8 58 5.3 SSE 11 19 6 10 - - 0.0
19/09:00am 22.7 22.3 14.0 58 5.1 SE 9 13 5 7 - - 0.0
19/08:30am 19.9 19.3 13.4 66 3.7 S 9 11 5 6 - - 0.0
19/08:00am 17.3 16.8 12.8 75 2.5 S 7 9 4 5 - - 0.0
19/07:30am 15.6 14.7 11.4 76 2.3 SSE 7 13 4 7 - - 0.0
19/07:00am 14.7 14.1 11.7 82 1.6 SSW 6 9 3 5 - - 0.0
19/06:30am 13.6 12.6 10.9 84 1.4 S 7 11 4 6 - - 0.0
19/06:00am 13.7 12.7 10.9 83 1.5 WSW 7 11 4 6 - - 0.0
19/05:30am 13.8 12.5 11.3 85 1.3 SSE 9 13 5 7 - - 0.0
19/05:00am 13.7 12.9 11.0 84 1.4 SSE 6 9 3 5 - - 0.0
19/04:30am 14.7 13.5 11.5 81 1.7 SSE 9 13 5 7 - - 0.0
19/04:00am 13.8 12.9 11.3 85 1.3 S 7 9 4 5 - - 0.0
19/03:30am 13.8 12.6 11.7 87 1.1 S 9 11 5 6 - - 0.0
19/03:00am 14.2 13.2 12.2 88 1.1 S 9 11 5 6 - - 0.0
19/02:30am 13.7 13.0 12.1 90 0.9 S 7 11 4 6 - - 0.0
19/02:00am 14.3 15.2 12.9 91 0.8 CALM 0 0 0 0 - - 0.0
19/01:30am 14.7 14.9 13.1 90 0.9 SSE 4 7 2 4 - - 0.0
19/01:00am 14.6 15.5 13.0 90 0.9 CALM 0 0 0 0 - - 0.0
19/12:30am 14.4 15.3 12.8 90 0.9 CALM 0 0 0 0 - - 0.0
19/12:00am 14.6 15.0 12.6 88 1.1 SSW 2 7 1 4 - - 0.0
 
Date/Time
EST
Temp
°C
App
Temp
°C
Dew
Point
Rel
Hum
%
Delta-T
°C
Wind Press
QNH
hPa
Press
MSL
hPa
Rain
since 9 am
mm
Dir
 
Spd
km/h
Gust
km/h
Spd
kts
Gust
kts
18/11:30pm 15.0 15.7 13.5 91 0.8 SSW 2 7 1 4 - - 0.0
18/11:00pm 15.4 16.6 13.8 90 0.9 CALM 0 0 0 0 - - 0.0
18/10:30pm 16.0 17.3 14.2 89 1.0 CALM 0 0 0 0 - - 0.0
18/10:00pm 15.8 16.9 13.5 86 1.3 CALM 0 0 0 0 - - 0.0
18/09:30pm 16.7 18.1 14.3 86 1.4 CALM 0 0 0 0 - - 0.0
18/09:00pm 17.0 18.3 14.1 83 1.7 CALM 0 0 0 0 - - 0.0
18/08:30pm 18.9 20.5 14.8 77 2.4 CALM 0 0 0 0 - - 0.0
18/08:00pm 19.3 20.0 14.6 74 2.7 SW 4 7 2 4 - - 0.0

Other Formats:

Comma delimited format used in spreadsheet applications
http://www.bom.gov.au/fwo/IDQ60801/IDQ60801.94288.axf

JavaScript Object Notation format (JSON) in row-major order
http://www.bom.gov.au/fwo/IDQ60801/IDQ60801.94288.json